Time;durP1;ratioP1;P1;durP2;ratioP2;P2;SDS_P1;SDS_P2;PMS_P1;PMS_P2;Temp;Humidity;BMP_temperature;BMP_pressure;BME280_temperature;BME280_humidity;BME280_pressure;Samples;Min_cycle;Max_cycle;Signal;HPM_P1;HPM_P2
2023/06/16 00:00:43;;;;;;;5.20;4.73;;;;;;;13.93;100.00;99184.38;5114562;28;20223;-77
2023/06/16 00:03:15;;;;;;;5.00;4.57;;;;;;;13.91;100.00;99187.31;5111290;28;20660;-76
2023/06/16 00:05:46;;;;;;;5.00;4.60;;;;;;;13.87;100.00;99188.91;5114197;28;20265;-77
2023/06/16 00:08:14;;;;;;;4.70;4.20;;;;;;;13.85;100.00;99188.34;5114010;28;20654;-77
2023/06/16 00:10:42;;;;;;;5.87;4.90;;;;;;;13.85;100.00;99191.03;5111381;28;20290;-76
2023/06/16 00:13:09;;;;;;;4.83;4.43;;;;;;;13.89;100.00;99191.34;5108305;28;20593;-79
2023/06/16 00:15:36;;;;;;;4.53;4.13;;;;;;;13.87;100.00;99191.59;5099185;28;20193;-77
2023/06/16 00:18:03;;;;;;;4.73;4.33;;;;;;;13.88;100.00;99190.53;5113744;28;20188;-78
2023/06/16 00:20:32;;;;;;;4.37;4.00;;;;;;;13.87;100.00;99196.97;5108073;28;20191;-77
2023/06/16 00:22:59;;;;;;;4.70;4.27;;;;;;;13.87;100.00;99193.47;5111173;28;20182;-76
2023/06/16 00:25:25;;;;;;;4.63;4.27;;;;;;;13.85;100.00;99191.03;5113658;28;20248;-77
2023/06/16 00:27:52;;;;;;;4.47;4.17;;;;;;;13.80;100.00;99190.97;5113222;28;20667;-78
2023/06/16 00:30:19;;;;;;;4.90;4.40;;;;;;;13.77;100.00;99177.19;5110431;28;20191;-76
2023/06/16 00:32:46;;;;;;;4.27;3.87;;;;;;;13.81;100.00;99187.19;5112979;28;20188;-76
2023/06/16 00:35:13;;;;;;;4.80;4.30;;;;;;;13.79;100.00;99178.56;5113183;28;20663;-76
2023/06/16 00:37:39;;;;;;;4.43;4.03;;;;;;;13.76;100.00;99184.47;5095283;28;20540;-77
2023/06/16 00:40:07;;;;;;;4.13;3.83;;;;;;;13.77;100.00;99175.31;5113619;28;20192;-76
2023/06/16 00:42:33;;;;;;;4.67;4.27;;;;;;;13.77;100.00;99177.19;5113173;28;20199;-77
2023/06/16 00:45:00;;;;;;;4.50;4.10;;;;;;;13.75;100.00;99179.31;5113505;28;20260;-77
2023/06/16 00:47:27;;;;;;;4.90;4.50;;;;;;;13.72;100.00;99171.75;5113245;28;20195;-76
2023/06/16 00:49:54;;;;;;;4.57;4.23;;;;;;;13.66;100.00;99174.41;5083012;28;20191;-77
2023/06/16 00:52:25;;;;;;;4.67;4.27;;;;;;;13.62;100.00;99175.94;5094979;28;20203;-77
2023/06/16 00:54:54;;;;;;;4.67;4.27;;;;;;;13.55;100.00;99175.31;5095212;28;20299;-76
2023/06/16 00:57:21;;;;;;;4.63;4.23;;;;;;;13.52;100.00;99173.13;5113315;28;20669;-76
2023/06/16 00:59:48;;;;;;;4.33;4.03;;;;;;;13.47;100.00;99175.75;5094900;28;20202;-77
2023/06/16 01:02:15;;;;;;;4.67;4.27;;;;;;;13.40;100.00;99172.41;5112646;28;20683;-76
2023/06/16 01:04:46;;;;;;;4.87;4.47;;;;;;;13.35;100.00;99176.91;5113473;28;20239;-77
2023/06/16 01:07:21;;;;;;;4.80;4.37;;;;;;;13.32;100.00;99174.72;5094504;28;20207;-77
2023/06/16 01:09:52;;;;;;;4.70;4.30;;;;;;;13.30;100.00;99176.88;5072984;28;20218;-77
2023/06/16 01:12:25;;;;;;;5.07;4.40;;;;;;;13.24;100.00;99178.66;5088786;28;20225;-76
2023/06/16 01:14:58;;;;;;;4.83;4.40;;;;;;;13.16;100.00;99165.63;5093336;28;20282;-76
2023/06/16 01:17:28;;;;;;;4.70;4.30;;;;;;;13.11;100.00;99177.13;5086775;28;20646;-76
2023/06/16 01:20:06;;;;;;;5.00;4.60;;;;;;;13.09;100.00;99164.97;5077277;28;20194;-76
2023/06/16 01:22:39;;;;;;;4.70;4.40;;;;;;;13.04;100.00;99171.09;5087228;28;20259;-76
2023/06/16 01:25:07;;;;;;;4.97;4.57;;;;;;;12.98;100.00;99163.16;5112930;28;20689;-77
2023/06/16 01:27:38;;;;;;;4.50;4.10;;;;;;;12.89;100.00;99165.47;5074793;28;20676;-77
2023/06/16 01:30:06;;;;;;;4.83;4.43;;;;;;;12.87;100.00;99164.09;5112727;28;20264;-76
2023/06/16 01:32:33;;;;;;;4.63;4.23;;;;;;;12.83;100.00;99165.66;5112369;28;20539;-77
2023/06/16 01:35:00;;;;;;;5.77;4.23;;;;;;;12.80;100.00;99166.94;5087712;28;20206;-76
2023/06/16 01:37:27;;;;;;;5.20;4.70;;;;;;;12.77;100.00;99164.75;5093931;28;20187;-77
2023/06/16 01:39:55;;;;;;;4.20;3.90;;;;;;;12.74;100.00;99162.53;5112791;28;20190;-76
2023/06/16 01:42:23;;;;;;;4.57;4.17;;;;;;;12.73;100.00;99166.31;5105127;28;20659;-77
2023/06/16 01:44:51;;;;;;;4.90;4.50;;;;;;;12.66;100.00;99161.06;5094328;28;20210;-76
2023/06/16 01:47:18;;;;;;;4.53;4.17;;;;;;;12.66;100.00;99161.06;5086472;28;20620;-76
2023/06/16 01:49:45;;;;;;;4.53;4.13;;;;;;;12.64;100.00;99165.91;5093994;28;20199;-77
2023/06/16 01:52:12;;;;;;;4.07;3.77;;;;;;;12.59;100.00;99163.13;5077205;28;20243;-77
2023/06/16 01:54:39;;;;;;;5.20;4.50;;;;;;;12.60;100.00;99167.41;5077189;28;20253;-76
2023/06/16 01:57:06;;;;;;;4.83;4.40;;;;;;;12.60;100.00;99167.41;5112278;28;20660;-77
2023/06/16 01:59:33;;;;;;;5.40;4.83;;;;;;;12.59;100.00;99173.88;5093729;28;20597;-76
2023/06/16 02:02:04;;;;;;;5.20;4.70;;;;;;;12.56;100.00;99173.53;5108153;28;20193;-77
2023/06/16 02:04:32;;;;;;;4.80;4.40;;;;;;;12.54;100.00;99168.41;5081193;28;20262;-76
2023/06/16 02:07:02;;;;;;;4.90;4.50;;;;;;;12.51;100.00;99168.06;5074449;28;20202;-77
2023/06/16 02:09:31;;;;;;;4.87;4.40;;;;;;;12.49;100.00;99168.31;5082587;28;20589;-75
2023/06/16 02:11:58;;;;;;;5.20;4.70;;;;;;;12.48;100.00;99168.56;5069332;28;20715;-75
2023/06/16 02:14:27;;;;;;;4.90;4.40;;;;;;;12.39;100.00;99170.00;5097109;28;20236;-77
2023/06/16 02:16:54;;;;;;;5.03;4.30;;;;;;;12.33;100.00;99169.09;5070024;28;20231;-76
2023/06/16 02:19:21;;;;;;;4.80;4.40;;;;;;;12.28;100.00;99171.69;5089917;28;20201;-77
2023/06/16 02:21:48;;;;;;;5.03;4.63;;;;;;;12.23;100.00;99179.66;5093805;28;20193;-77
2023/06/16 02:24:14;;;;;;;5.00;4.60;;;;;;;12.21;100.00;99176.41;5090767;28;20229;-77
2023/06/16 02:26:42;;;;;;;5.27;4.87;;;;;;;12.18;100.00;99171.50;5088741;28;20548;-77
2023/06/16 02:29:08;;;;;;;6.23;4.63;;;;;;;12.18;100.00;99168.81;5072502;28;20725;-76
2023/06/16 02:31:35;;;;;;;4.83;4.33;;;;;;;12.13;100.00;99180.28;5072704;28;20208;-76
2023/06/16 02:34:02;;;;;;;4.90;4.50;;;;;;;12.10;100.00;99175.41;5085429;28;20194;-77
2023/06/16 02:36:29;;;;;;;5.00;4.60;;;;;;;12.09;100.00;99187.19;5080135;28;20243;-76
2023/06/16 02:38:56;;;;;;;5.13;4.70;;;;;;;12.12;100.00;99178.69;5070163;28;20581;-77
2023/06/16 02:41:23;;;;;;;5.10;4.70;;;;;;;12.11;100.00;99179.72;5086708;28;20251;-77
2023/06/16 02:43:49;;;;;;;5.00;4.60;;;;;;;12.10;100.00;99178.09;5093148;28;20242;-77
2023/06/16 02:46:16;;;;;;;5.27;4.80;;;;;;;12.11;100.00;99177.03;5093301;28;20222;-77
2023/06/16 02:48:43;;;;;;;5.07;4.67;;;;;;;12.11;100.00;99169.00;5093172;28;20737;-76
2023/06/16 02:51:10;;;;;;;5.10;4.70;;;;;;;12.13;100.00;99169.53;5096786;28;20230;-77
2023/06/16 02:53:39;;;;;;;5.27;4.70;;;;;;;12.14;100.00;99178.41;5097032;28;20200;-78
2023/06/16 02:56:07;;;;;;;4.77;4.37;;;;;;;12.12;100.00;99176.00;5097153;28;20236;-78
2023/06/16 02:58:35;;;;;;;5.40;4.90;;;;;;;12.09;100.00;99179.13;5095148;28;20284;-77
2023/06/16 03:01:01;;;;;;;4.93;4.53;;;;;;;12.08;100.00;99169.47;5068677;28;20205;-75
2023/06/16 03:03:51;;;;;;;4.90;4.50;;;;;;;12.07;100.00;99170.53;5075056;28;20245;-78
2023/06/16 03:06:34;;;;;;;5.93;4.60;;;;;;;12.09;100.00;99178.31;5064303;28;20208;-76
2023/06/16 03:09:09;;;;;;;4.80;4.40;;;;;;;12.05;100.00;99175.31;5067331;28;20213;-76
2023/06/16 03:11:36;;;;;;;5.10;4.67;;;;;;;12.04;100.00;99170.97;5073450;28;20666;-77
2023/06/16 03:14:03;;;;;;;5.17;4.30;;;;;;;12.05;100.00;99179.84;5069232;28;20210;-76
2023/06/16 03:16:32;;;;;;;5.17;4.70;;;;;;;12.10;100.00;99178.09;5054845;28;20572;-77
2023/06/16 03:19:00;;;;;;;5.10;4.63;;;;;;;12.05;100.00;99179.84;5087035;28;20202;-76
2023/06/16 03:21:27;;;;;;;5.33;4.93;;;;;;;12.03;100.00;99177.44;5088222;28;20198;-76
2023/06/16 03:23:54;;;;;;;5.10;4.60;;;;;;;12.07;100.00;99172.41;5089186;28;20223;-75
2023/06/16 03:26:22;;;;;;;4.77;4.47;;;;;;;12.12;100.00;99176.00;5094522;28;20673;-77
2023/06/16 03:29:06;;;;;;;5.27;4.87;;;;;;;12.21;100.00;99165.69;5093175;28;20288;-77
2023/06/16 03:31:33;;;;;;;5.27;4.40;;;;;;;12.19;100.00;99165.91;5093308;28;20717;-77
2023/06/16 03:34:05;;;;;;;5.13;4.67;;;;;;;12.24;100.00;99163.31;5087358;28;20197;-76
2023/06/16 03:36:52;;;;;;;4.67;4.23;;;;;;;12.26;100.00;99171.97;5091302;28;20293;-77
2023/06/16 03:39:22;;;;;;;4.27;3.97;;;;;;;12.31;100.00;99176.59;5091665;28;20207;-77
2023/06/16 03:41:48;;;;;;;4.27;3.87;;;;;;;12.39;100.00;99180.75;5094094;28;20186;-77
2023/06/16 03:44:15;;;;;;;5.00;4.03;;;;;;;12.47;100.00;99178.50;5092716;28;20214;-75
2023/06/16 03:46:42;;;;;;;4.00;3.70;;;;;;;12.55;100.00;99180.75;5094109;28;20190;-78
2023/06/16 03:49:10;;;;;;;4.30;3.90;;;;;;;12.70;100.00;99178.34;5092575;28;20207;-77
2023/06/16 03:51:40;;;;;;;3.93;3.63;;;;;;;12.82;100.00;99189.03;5092831;28;20738;-78
2023/06/16 03:54:09;;;;;;;4.20;3.87;;;;;;;12.93;100.00;99192.66;5092553;28;20208;-77
2023/06/16 03:56:36;;;;;;;4.30;3.93;;;;;;;13.07;100.00;99188.59;5084298;28;20544;-77
2023/06/16 03:59:03;;;;;;;4.47;4.07;;;;;;;13.18;100.00;99193.09;5091631;28;20205;-77
2023/06/16 04:01:31;;;;;;;4.30;3.90;;;;;;;13.31;100.00;99192.75;5084855;28;20213;-77
2023/06/16 04:03:58;;;;;;;4.53;4.10;;;;;;;13.47;100.00;99193.78;5108638;28;20276;-76
2023/06/16 04:06:25;;;;;;;4.73;3.80;;;;;;;13.96;100.00;99192.78;5113917;28;20197;-78
2023/06/16 04:08:59;;;;;;;3.93;3.63;;;;;;;16.02;100.00;99201.94;5095316;28;20248;-78
2023/06/16 04:11:26;;;;;;;4.10;3.70;;;;;;;18.26;100.00;99196.06;5095494;28;20191;-77
2023/06/16 04:13:53;;;;;;;4.00;3.27;;;;;;;20.09;100.00;99204.19;5093977;28;20219;-76
2023/06/16 04:16:20;;;;;;;5.57;3.57;;;;;;;21.20;100.00;99191.63;5093133;28;20578;-77
2023/06/16 04:18:48;;;;;;;3.50;3.20;;;;;;;22.05;100.00;99191.09;5078544;28;20189;-77
2023/06/16 04:21:15;;;;;;;4.97;3.00;;;;;;;23.16;100.00;99187.69;5081898;28;20286;-77
2023/06/16 04:23:42;;;;;;;3.57;3.27;;;;;;;22.03;100.00;99192.50;5097455;28;20198;-78
2023/06/16 04:26:10;;;;;;;3.40;3.10;;;;;;;22.35;100.00;99189.59;5082487;28;20327;-77
2023/06/16 04:28:43;;;;;;;3.50;3.00;;;;;;;23.22;99.02;99186.44;5071450;28;20288;-77
2023/06/16 04:31:14;;;;;;;3.37;2.90;;;;;;;24.19;92.82;99196.34;5071345;28;20214;-76
2023/06/16 04:33:41;;;;;;;4.00;3.10;;;;;;;24.45;87.84;99194.44;5070461;28;20202;-77
2023/06/16 04:36:10;;;;;;;4.07;2.87;;;;;;;24.76;83.49;99191.56;5082209;28;20464;-77
2023/06/16 04:38:37;;;;;;;3.30;3.00;;;;;;;24.69;81.97;99185.75;5098372;28;20563;-78
2023/06/16 04:41:04;;;;;;;3.13;2.90;;;;;;;23.27;85.81;99175.38;5099813;28;20206;-74
2023/06/16 04:43:31;;;;;;;3.93;3.13;;;;;;;22.08;91.03;99179.56;5076508;28;20203;-73
2023/06/16 04:45:58;;;;;;;3.23;2.93;;;;;;;21.08;97.48;99174.94;5076851;28;20592;-75
2023/06/16 04:48:25;;;;;;;3.53;3.17;;;;;;;20.45;100.00;99185.47;5077929;28;20289;-73
2023/06/16 04:50:57;;;;;;;3.20;3.00;;;;;;;20.03;100.00;99189.03;5078007;28;20203;-74
2023/06/16 04:53:25;;;;;;;2.90;2.70;;;;;;;19.60;100.00;99186.28;5078840;28;20297;-77
2023/06/16 04:55:51;;;;;;;2.90;2.70;;;;;;;19.46;100.00;99182.63;5094088;28;20246;-73
2023/06/16 04:58:19;;;;;;;3.13;2.93;;;;;;;19.23;100.00;99186.09;5105361;28;20196;-78
2023/06/16 05:00:45;;;;;;;3.53;3.00;;;;;;;19.21;100.00;99185.59;5112081;28;20254;-74
2023/06/16 05:03:12;;;;;;;5.37;3.40;;;;;;;19.09;100.00;99187.84;5087732;28;20245;-75
2023/06/16 05:05:39;;;;;;;3.30;3.10;;;;;;;19.19;100.00;99188.59;5091023;28;20212;-74
2023/06/16 05:08:06;;;;;;;3.50;3.20;;;;;;;19.21;100.00;99185.59;5092156;28;20205;-75
2023/06/16 05:10:32;;;;;;;4.70;3.23;;;;;;;19.21;100.00;99185.59;5090864;28;20206;-75
2023/06/16 05:13:00;;;;;;;7.00;3.37;;;;;;;19.21;100.00;99185.59;5088454;28;20202;-76
2023/06/16 05:15:27;;;;;;;4.40;3.17;;;;;;;19.19;100.00;99185.06;5086630;28;20205;-75
2023/06/16 05:17:54;;;;;;;4.23;3.20;;;;;;;19.25;100.00;99190.16;5087870;28;20202;-74
2023/06/16 05:20:20;;;;;;;3.07;2.83;;;;;;;19.35;100.00;99183.81;5089741;28;20206;-74
2023/06/16 05:22:47;;;;;;;7.37;2.80;;;;;;;19.33;100.00;99183.28;5089901;28;20201;-74
2023/06/16 05:25:15;;;;;;;3.20;2.87;;;;;;;19.28;100.00;99176.00;5089268;28;20251;-76
2023/06/16 05:27:43;;;;;;;3.30;3.00;;;;;;;19.47;100.00;99186.97;5090874;28;20209;-75
2023/06/16 05:30:10;;;;;;;3.00;2.80;;;;;;;19.69;100.00;99192.69;5088630;28;20204;-75
2023/06/16 05:32:38;;;;;;;3.33;3.03;;;;;;;19.88;100.00;99191.94;5090536;28;20566;-76
2023/06/16 05:35:07;;;;;;;4.10;2.63;;;;;;;19.93;100.00;99192.69;5087715;28;20210;-74
2023/06/16 05:37:34;;;;;;;3.30;2.80;;;;;;;20.02;100.00;99190.13;5090527;28;20233;-75
2023/06/16 05:40:02;;;;;;;3.30;3.00;;;;;;;19.98;100.00;99192.63;5090914;28;20207;-75
2023/06/16 05:42:33;;;;;;;2.63;2.37;;;;;;;19.82;100.00;99195.81;5090639;28;20213;-76
2023/06/16 05:45:00;;;;;;;3.07;2.40;;;;;;;20.09;100.00;99196.84;5069629;28;20233;-76
2023/06/16 05:47:28;;;;;;;3.70;2.70;;;;;;;20.01;100.00;99196.69;5091918;28;20288;-74
2023/06/16 05:49:57;;;;;;;3.17;2.73;;;;;;;20.20;100.00;99200.22;5082771;28;20220;-75
2023/06/16 05:52:24;;;;;;;3.20;2.90;;;;;;;20.30;100.00;99191.09;5083173;28;20215;-75
2023/06/16 05:54:51;;;;;;;2.90;2.70;;;;;;;20.39;100.00;99192.13;5084445;28;20268;-75
2023/06/16 05:57:25;;;;;;;3.27;2.60;;;;;;;20.43;100.00;99193.94;5083005;28;20202;-74
2023/06/16 05:59:52;;;;;;;4.13;2.60;;;;;;;20.46;100.00;99195.25;5083306;28;20210;-75
2023/06/16 06:02:19;;;;;;;3.10;2.80;;;;;;;20.61;100.00;99197.75;5088644;28;20191;-75
2023/06/16 06:04:48;;;;;;;3.30;3.03;;;;;;;20.67;100.00;99202.81;5086458;28;20221;-77
2023/06/16 06:07:15;;;;;;;2.93;2.63;;;;;;;20.82;100.00;99206.41;5082430;28;20607;-75
2023/06/16 06:09:42;;;;;;;4.03;2.90;;;;;;;20.99;100.00;99199.34;5085024;28;20196;-76
2023/06/16 06:12:11;;;;;;;2.83;2.63;;;;;;;20.85;100.00;99203.09;5084494;28;20253;-74
2023/06/16 06:14:38;;;;;;;5.10;2.90;;;;;;;20.92;100.00;99209.78;5087728;28;20652;-77
2023/06/16 06:17:05;;;;;;;4.40;3.10;;;;;;;20.88;100.00;99207.94;5093747;28;20194;-76
2023/06/16 06:19:32;;;;;;;3.63;2.70;;;;;;;20.90;100.00;99195.63;5093065;28;20617;-74
2023/06/16 06:22:00;;;;;;;3.60;2.73;;;;;;;20.90;100.00;99205.75;5093348;28;20218;-75
2023/06/16 06:24:27;;;;;;;3.93;2.60;;;;;;;21.10;100.00;99197.22;5091315;28;20194;-74
2023/06/16 06:26:56;;;;;;;2.97;2.77;;;;;;;21.02;100.00;99203.34;5089595;28;20189;-74
2023/06/16 06:29:24;;;;;;;3.33;2.93;;;;;;;21.20;100.00;99201.72;5115684;28;20198;-75
2023/06/16 06:31:51;;;;;;;4.17;3.07;;;;;;;21.37;100.00;99202.75;5097465;28;20203;-75
2023/06/16 06:34:17;;;;;;;4.10;2.97;;;;;;;21.28;100.00;99204.56;5108139;28;20196;-75
2023/06/16 06:36:47;;;;;;;3.80;2.93;;;;;;;21.37;100.00;99210.16;5096071;28;20201;-75
2023/06/16 06:39:16;;;;;;;7.33;3.13;;;;;;;21.46;100.00;99205.63;5086517;28;20230;-75
2023/06/16 06:41:43;;;;;;;4.40;3.13;;;;;;;21.65;100.00;99213.72;5097342;28;20668;-81
2023/06/16 06:44:14;;;;;;;3.23;2.90;;;;;;;21.79;99.76;99204.41;5091426;28;20639;-75
2023/06/16 06:46:48;;;;;;;4.40;3.03;;;;;;;21.78;97.50;99215.63;5082117;28;20270;-75
2023/06/16 06:49:17;;;;;;;3.20;2.90;;;;;;;21.89;97.91;99208.84;5066516;28;20562;-75
2023/06/16 06:51:44;;;;;;;3.93;3.07;;;;;;;21.80;96.91;99216.94;5075164;28;20216;-76
2023/06/16 06:54:11;;;;;;;3.50;3.20;;;;;;;21.72;96.56;99208.66;5093633;28;20222;-75
2023/06/16 06:56:37;;;;;;;4.10;2.70;;;;;;;21.56;97.50;99205.41;5097156;28;20197;-74
2023/06/16 06:59:04;;;;;;;3.30;3.00;;;;;;;21.81;95.93;99213.09;5095976;28;20213;-75
2023/06/16 07:01:31;;;;;;;2.90;2.70;;;;;;;22.07;96.80;99213.41;5090573;28;20314;-74
2023/06/16 07:03:58;;;;;;;3.57;3.10;;;;;;;22.24;96.80;99210.88;5091609;28;20716;-76
2023/06/16 07:06:24;;;;;;;3.40;3.10;;;;;;;22.27;96.28;99212.16;5079770;28;20227;-75
2023/06/16 07:08:51;;;;;;;3.50;2.90;;;;;;;22.22;94.87;99210.34;5093932;28;20215;-75
2023/06/16 07:11:18;;;;;;;3.57;3.23;;;;;;;22.39;96.74;99213.28;5096447;28;20234;-76
2023/06/16 07:13:45;;;;;;;3.20;2.93;;;;;;;22.32;94.98;99210.13;5091032;28;20201;-74
2023/06/16 07:16:11;;;;;;;3.33;2.97;;;;;;;22.45;93.85;99205.75;5096172;28;20249;-76
2023/06/16 07:18:38;;;;;;;3.17;2.88;;;;;;;22.59;93.78;99213.91;5088678;28;20284;-77
2023/06/16 07:21:05;;;;;;;3.23;3.03;;;;;;;22.31;91.88;99205.78;5100488;28;20196;-75
2023/06/16 07:23:32;;;;;;;3.47;3.07;;;;;;;22.28;93.57;99211.06;5093691;28;20245;-76
2023/06/16 07:25:58;;;;;;;4.77;2.80;;;;;;;22.53;93.38;99223.34;5111895;28;20268;-74
2023/06/16 07:28:25;;;;;;;3.33;3.03;;;;;;;22.05;93.19;99212.91;5113215;28;20199;-74
2023/06/16 07:30:52;;;;;;;3.45;3.13;;;;;;;22.29;93.19;99215.41;5114472;28;20210;-76
2023/06/16 07:33:19;;;;;;;3.33;2.90;;;;;;;22.41;93.37;99207.50;5109189;28;20184;-75
2023/06/16 07:35:45;;;;;;;3.60;3.30;;;;;;;22.13;94.28;99212.19;5102434;28;20204;-77
2023/06/16 07:38:12;;;;;;;3.55;3.05;;;;;;;22.40;94.52;99203.13;5114292;28;20192;-76
2023/06/16 07:40:39;;;;;;;3.45;3.13;;;;;;;22.30;91.62;99211.56;5114558;28;20211;-76
2023/06/16 07:43:06;;;;;;;3.58;3.28;;;;;;;22.19;94.14;99210.97;5101594;28;20721;-76
2023/06/16 07:45:34;;;;;;;4.90;3.30;;;;;;;22.52;93.84;99197.16;5111094;28;21200;-77
2023/06/16 07:48:02;;;;;;;3.80;3.45;;;;;;;22.35;93.14;99195.88;5113428;28;20730;-75
2023/06/16 07:50:28;;;;;;;5.05;3.70;;;;;;;22.56;91.64;99201.69;5113460;28;20535;-76
2023/06/16 07:52:55;;;;;;;3.80;3.28;;;;;;;22.81;90.91;99197.59;5110611;28;20195;-76
2023/06/16 07:55:22;;;;;;;3.73;3.33;;;;;;;22.91;90.52;99183.66;5110590;28;20219;-77
2023/06/16 07:57:49;;;;;;;3.75;3.42;;;;;;;22.90;89.55;99195.72;5113025;28;20191;-76
2023/06/16 08:00:18;;;;;;;4.20;3.30;;;;;;;22.82;87.98;99185.53;5105640;28;20188;-77
2023/06/16 08:02:45;;;;;;;4.60;3.60;;;;;;;23.03;90.71;99194.03;5106775;28;20351;-77
2023/06/16 08:05:12;;;;;;;3.65;3.35;;;;;;;22.71;87.47;99195.09;5112622;28;20582;-76
2023/06/16 08:07:39;;;;;;;3.65;3.35;;;;;;;22.96;89.98;99190.91;5113718;28;20196;-76
2023/06/16 08:10:06;;;;;;;4.90;3.47;;;;;;;22.88;90.28;99184.28;5113190;28;20187;-77
2023/06/16 08:12:33;;;;;;;5.65;3.33;;;;;;;22.95;89.11;99197.53;5113432;28;20671;-75
2023/06/16 08:15:00;;;;;;;3.90;3.60;;;;;;;22.86;85.91;99181.06;5113273;28;20187;-76
2023/06/16 08:17:26;;;;;;;3.65;3.35;;;;;;;22.89;87.59;99182.38;5113241;28;20271;-77
2023/06/16 08:19:53;;;;;;;4.18;3.63;;;;;;;22.98;90.16;99183.22;5109221;28;20718;-76
2023/06/16 08:22:20;;;;;;;4.13;3.47;;;;;;;22.93;85.78;99186.09;5112496;28;20252;-76
2023/06/16 08:24:47;;;;;;;4.85;3.72;;;;;;;23.01;84.28;99188.06;5094808;28;20248;-76
2023/06/16 08:27:14;;;;;;;5.90;3.90;;;;;;;23.03;85.25;99181.19;5110916;28;20231;-77
2023/06/16 08:29:41;;;;;;;6.10;3.55;;;;;;;23.13;85.43;99183.66;5100716;28;20203;-76
2023/06/16 08:32:08;;;;;;;3.40;3.20;;;;;;;23.06;80.93;99182.47;5112213;28;20206;-77
2023/06/16 08:34:36;;;;;;;3.80;3.50;;;;;;;23.25;81.11;99185.81;5109763;28;20200;-76
2023/06/16 08:37:03;;;;;;;4.85;3.70;;;;;;;23.49;79.25;99182.75;5112898;28;20196;-76
2023/06/16 08:39:46;;;;;;;3.80;3.28;;;;;;;23.16;80.31;99180.28;5093084;28;20790;-76
2023/06/16 08:42:13;;;;;;;4.75;3.53;;;;;;;23.32;80.90;99177.16;5104683;28;20195;-76
2023/06/16 08:44:40;;;;;;;3.88;3.58;;;;;;;23.74;80.78;99178.50;5105497;28;20192;-76
2023/06/16 08:47:08;;;;;;;3.50;3.20;;;;;;;23.79;80.67;99187.38;5093179;28;20714;-77
2023/06/16 08:49:35;;;;;;;3.70;3.40;;;;;;;23.78;78.51;99180.28;5093729;28;20293;-76
2023/06/16 08:52:03;;;;;;;3.45;3.15;;;;;;;23.76;77.64;99176.25;5078694;28;20258;-77
2023/06/16 08:54:37;;;;;;;5.18;3.67;;;;;;;23.73;79.51;99174.16;5074964;28;20199;-76
2023/06/16 08:57:06;;;;;;;3.95;3.55;;;;;;;23.81;78.27;99174.16;5078549;28;20190;-76
2023/06/16 08:59:33;;;;;;;4.72;3.60;;;;;;;23.67;77.25;99173.47;5075207;28;20320;-78
2023/06/16 09:02:01;;;;;;;4.80;3.47;;;;;;;;;;5075875;28;20204;-78
2023/06/16 09:04:33;;;;;;;3.60;3.30;;;;;;;23.53;72.74;99167.31;5101593;28;20258;-79
2023/06/16 09:07:00;;;;;;;4.25;3.85;;;;;;;23.58;73.54;99170.72;5071615;28;20221;-77
2023/06/16 09:09:27;;;;;;;3.78;3.47;;;;;;;23.49;74.06;99160.88;5094811;28;20190;-77
2023/06/16 09:12:04;;;;;;;6.20;3.50;;;;;;;23.60;71.42;99154.00;5104485;28;20568;-76
2023/06/16 09:14:36;;;;;;;3.88;3.50;;;;;;;23.25;73.38;99158.47;5112057;28;20219;-77
2023/06/16 09:17:05;;;;;;;4.95;3.95;;;;;;;23.70;72.21;99170.91;5112569;28;20183;-77
2023/06/16 09:19:35;;;;;;;4.10;3.80;;;;;;;23.87;71.68;99166.63;5110602;28;20654;-77
2023/06/16 09:22:02;;;;;;;4.57;3.85;;;;;;;23.65;69.93;99173.00;5111955;28;20734;-77
2023/06/16 09:24:29;;;;;;;5.03;3.75;;;;;;;23.74;71.15;99162.91;5110344;28;20261;-76
2023/06/16 09:26:59;;;;;;;4.15;3.72;;;;;;;23.98;70.70;99154.28;5112696;28;20215;-77
2023/06/16 09:29:27;;;;;;;4.07;3.70;;;;;;;24.06;69.49;99159.75;5112200;28;20669;-76
2023/06/16 09:31:54;;;;;;;7.55;3.80;;;;;;;24.20;67.64;99153.38;5112580;28;20203;-77
2023/06/16 09:34:21;;;;;;;3.80;3.50;;;;;;;24.52;69.24;99156.44;5088701;28;20221;-76
2023/06/16 09:36:47;;;;;;;4.55;3.88;;;;;;;24.41;67.26;99155.13;5111628;28;20246;-79
2023/06/16 09:39:23;;;;;;;4.00;3.63;;;;;;;24.36;65.02;99149.00;5100206;28;20187;-77
2023/06/16 09:41:51;;;;;;;5.82;3.92;;;;;;;24.44;65.09;99135.34;5091351;28;20652;-76
2023/06/16 09:44:25;;;;;;;4.28;3.70;;;;;;;24.44;65.76;99145.50;5109013;28;20600;-76
2023/06/16 09:46:53;;;;;;;3.88;3.53;;;;;;;24.50;65.93;99144.97;5109399;28;20223;-76
2023/06/16 09:49:24;;;;;;;4.10;3.65;;;;;;;24.84;66.39;99144.16;5108128;28;20891;-77
2023/06/16 09:51:52;;;;;;;4.78;3.78;;;;;;;24.71;67.02;99141.59;5109563;28;20195;-76
2023/06/16 09:54:21;;;;;;;3.88;3.50;;;;;;;24.86;64.99;99138.34;5104073;28;20210;-77
2023/06/16 09:56:48;;;;;;;5.68;3.80;;;;;;;24.94;64.82;99138.38;5111944;28;20271;-75
2023/06/16 09:59:16;;;;;;;4.57;3.75;;;;;;;24.93;61.87;99144.16;5111471;28;20198;-76
2023/06/16 10:01:43;;;;;;;5.30;3.60;;;;;;;24.77;60.92;99140.31;5111969;28;20192;-76
2023/06/16 10:04:10;;;;;;;4.10;3.70;;;;;;;24.86;59.09;99135.63;5093487;28;20604;-78
2023/06/16 10:06:54;;;;;;;3.92;3.53;;;;;;;24.82;57.66;99126.44;5093734;28;20200;-78
2023/06/16 10:09:27;;;;;;;5.07;3.70;;;;;;;24.89;61.34;99126.78;5111787;28;20672;-77
2023/06/16 10:11:55;;;;;;;3.67;3.28;;;;;;;24.61;59.16;99134.53;5108844;28;20276;-75
2023/06/16 10:14:27;;;;;;;4.15;3.70;;;;;;;24.65;59.10;99129.19;5089438;28;20195;-78
2023/06/16 10:16:55;;;;;;;6.68;3.50;;;;;;;24.66;58.43;99128.06;5107807;28;20274;-75
2023/06/16 10:19:24;;;;;;;4.07;3.55;;;;;;;24.80;57.78;99121.28;5110969;28;20299;-75
2023/06/16 10:21:51;;;;;;;5.10;3.70;;;;;;;25.22;58.00;99122.31;5093885;28;20195;-76
2023/06/16 10:24:19;;;;;;;4.57;3.30;;;;;;;25.37;55.93;99116.31;5108534;28;20188;-76
2023/06/16 10:26:47;;;;;;;6.20;3.75;;;;;;;25.42;57.25;99118.88;5111793;28;20218;-76
2023/06/16 10:29:16;;;;;;;5.68;3.58;;;;;;;25.44;55.64;99110.28;5093609;28;20194;-76
2023/06/16 10:31:44;;;;;;;4.43;3.63;;;;;;;25.70;58.50;99111.00;5105057;28;20196;-78
2023/06/16 10:34:19;;;;;;;5.25;3.97;;;;;;;25.80;55.33;99115.31;5102210;28;20198;-78
2023/06/16 10:36:48;;;;;;;3.70;3.40;;;;;;;25.36;54.14;99111.13;5091659;28;20223;-78
2023/06/16 10:39:18;;;;;;;4.47;3.45;;;;;;;25.90;55.68;99094.91;5110942;28;20189;-77
2023/06/16 10:41:56;;;;;;;4.97;3.63;;;;;;;26.04;53.54;99101.72;5111304;28;20191;-76
2023/06/16 10:44:27;;;;;;;6.90;3.70;;;;;;;25.91;50.24;99104.72;5107150;28;20624;-79
2023/06/16 10:47:09;;;;;;;4.40;3.30;;;;;;;26.07;49.15;99108.50;5090374;28;20256;-80
2023/06/16 10:49:57;;;;;;;3.45;3.15;;;;;;;26.18;51.31;99099.50;5099187;28;20637;-78
2023/06/16 10:52:34;;;;;;;4.65;3.55;;;;;;;26.09;50.03;99097.97;5106041;28;20252;-78
2023/06/16 10:55:32;;;;;;;5.63;3.60;;;;;;;25.90;49.97;99087.44;5086407;28;20322;-78
2023/06/16 10:58:18;;;;;;;4.03;3.67;;;;;;;25.78;50.39;99088.19;5103323;28;20203;-78
2023/06/16 11:00:59;;;;;;;3.80;3.45;;;;;;;26.21;51.60;99081.63;5105878;28;20202;-78
2023/06/16 11:03:36;;;;;;;4.15;3.60;;;;;;;26.23;49.74;99091.13;5085890;28;20269;-76
2023/06/16 11:06:04;;;;;;;3.20;2.90;;;;;;;26.04;48.96;99079.75;5084458;28;20699;-75
2023/06/16 11:08:30;;;;;;;3.92;3.63;;;;;;;26.31;49.76;99083.97;5071921;28;20180;-76
2023/06/16 11:11:07;;;;;;;3.92;3.50;;;;;;;26.52;49.42;99087.47;5092101;28;20188;-76
2023/06/16 11:13:35;;;;;;;3.78;3.47;;;;;;;26.66;49.87;99076.19;5081760;28;20188;-76
2023/06/16 11:16:02;;;;;;;4.00;3.60;;;;;;;26.53;49.83;99080.03;5094464;28;20201;-77
2023/06/16 11:18:33;;;;;;;5.97;3.55;;;;;;;27.00;49.75;99069.53;5092428;28;20227;-77
2023/06/16 11:21:06;;;;;;;3.95;3.65;;;;;;;26.76;46.94;99066.72;5087859;28;20216;-77
2023/06/16 11:23:37;;;;;;;5.03;4.05;;;;;;;27.02;46.62;99069.97;5070823;28;20282;-76
2023/06/16 11:26:12;;;;;;;4.15;3.65;;;;;;;26.37;44.75;99059.81;5093170;28;20200;-75
2023/06/16 11:28:41;;;;;;;4.75;3.70;;;;;;;26.55;45.00;99058.53;5068148;28;20192;-76
2023/06/16 11:31:09;;;;;;;4.80;3.58;;;;;;;26.39;44.61;99058.34;5071353;28;20189;-76
2023/06/16 11:33:37;;;;;;;4.18;3.78;;;;;;;26.38;43.97;99051.25;5069212;28;20783;-76
2023/06/16 11:36:16;;;;;;;4.55;3.80;;;;;;;26.53;44.16;99047.88;5072624;28;20219;-78